Terminal Aerodrome Forecast
Issued by NWS

Home | Current Version | Previous Version | Text Only | Print | Product List | Glossary On
Versions: 1 2 3 4 5 6 7 8 9 10 11 12
000
FTUS45 KVEF 201720
TAFEED
TAF
KEED 201720Z 2018/2118 VRB05KT P6SM FEW250
     FM201900 19014G22KT P6SM SCT250
     FM210300 23009KT P6SM FEW150 BKN250
     FM211500 17011KT P6SM SCT100 BKN200=

USA.gov is the U.S. government's official web portal to all federal, state and local government web resources and services.